sensor_id;sensor_type;location;lat;lon;timestamp;temperature;humidity
15481;DHT22;7842;50.904;6.670;2023-01-29T00:01:07;-0.80;99.90
15481;DHT22;7842;50.904;6.670;2023-01-29T00:03:33;-0.70;99.90
15481;DHT22;7842;50.904;6.670;2023-01-29T00:06:03;-0.80;99.90
15481;DHT22;7842;50.904;6.670;2023-01-29T00:08:35;-1.00;99.90
15481;DHT22;7842;50.904;6.670;2023-01-29T00:11:05;-1.10;99.90
15481;DHT22;7842;50.904;6.670;2023-01-29T00:13:32;-1.00;99.90
15481;DHT22;7842;50.904;6.670;2023-01-29T00:15:59;-1.00;99.90
15481;DHT22;7842;50.904;6.670;2023-01-29T00:18:26;-1.00;99.90
15481;DHT22;7842;50.904;6.670;2023-01-29T00:20:52;-1.00;99.90
15481;DHT22;7842;50.904;6.670;2023-01-29T00:23:18;-1.00;99.90
15481;DHT22;7842;50.904;6.670;2023-01-29T00:25:44;-1.10;99.90
15481;DHT22;7842;50.904;6.670;2023-01-29T00:28:11;-1.10;99.90
15481;DHT22;7842;50.904;6.670;2023-01-29T00:30:37;-1.20;99.90
15481;DHT22;7842;50.904;6.670;2023-01-29T00:33:03;-1.20;99.90
15481;DHT22;7842;50.904;6.670;2023-01-29T00:35:29;-1.30;99.90
15481;DHT22;7842;50.904;6.670;2023-01-29T00:37:55;-1.30;99.90
15481;DHT22;7842;50.904;6.670;2023-01-29T00:40:21;-1.30;99.90
15481;DHT22;7842;50.904;6.670;2023-01-29T00:42:50;-1.40;99.90
15481;DHT22;7842;50.904;6.670;2023-01-29T00:45:34;-1.30;99.90
15481;DHT22;7842;50.904;6.670;2023-01-29T00:48:04;-1.30;99.90
15481;DHT22;7842;50.904;6.670;2023-01-29T00:50:30;-1.50;99.90
15481;DHT22;7842;50.904;6.670;2023-01-29T00:52:55;-1.50;99.90
15481;DHT22;7842;50.904;6.670;2023-01-29T00:55:21;-1.50;99.90
15481;DHT22;7842;50.904;6.670;2023-01-29T00:57:47;-1.50;99.90
15481;DHT22;7842;50.904;6.670;2023-01-29T01:00:16;-1.50;99.90
15481;DHT22;7842;50.904;6.670;2023-01-29T01:02:42;-1.40;99.90
15481;DHT22;7842;50.904;6.670;2023-01-29T01:05:26;-1.50;99.90
15481;DHT22;7842;50.904;6.670;2023-01-29T01:07:54;-1.60;99.90
15481;DHT22;7842;50.904;6.670;2023-01-29T01:10:31;-1.60;99.90
15481;DHT22;7842;50.904;6.670;2023-01-29T01:12:59;-1.60;99.90
15481;DHT22;7842;50.904;6.670;2023-01-29T01:15:31;-1.60;99.90
15481;DHT22;7842;50.904;6.670;2023-01-29T01:17:59;-1.50;99.90
15481;DHT22;7842;50.904;6.670;2023-01-29T01:20:27;-1.50;99.90
15481;DHT22;7842;50.904;6.670;2023-01-29T01:22:53;-1.40;99.90
15481;DHT22;7842;50.904;6.670;2023-01-29T01:25:20;-1.30;99.90
15481;DHT22;7842;50.904;6.670;2023-01-29T01:27:46;-1.40;99.90
15481;DHT22;7842;50.904;6.670;2023-01-29T01:30:13;-1.50;99.90
15481;DHT22;7842;50.904;6.670;2023-01-29T01:32:40;-1.50;99.90
15481;DHT22;7842;50.904;6.670;2023-01-29T01:35:07;-1.50;99.90
15481;DHT22;7842;50.904;6.670;2023-01-29T01:37:33;-1.60;99.90
15481;DHT22;7842;50.904;6.670;2023-01-29T01:40:03;-2.60;99.90
15481;DHT22;7842;50.904;6.670;2023-01-29T01:42:30;-1.70;99.90
15481;DHT22;7842;50.904;6.670;2023-01-29T01:45:01;-1.80;99.90
15481;DHT22;7842;50.904;6.670;2023-01-29T01:48:16;-1.70;99.90
15481;DHT22;7842;50.904;6.670;2023-01-29T01:50:37;-1.90;99.90
15481;DHT22;7842;50.904;6.670;2023-01-29T01:53:07;-1.90;99.90
15481;DHT22;7842;50.904;6.670;2023-01-29T01:55:35;-2.00;99.90
15481;DHT22;7842;50.904;6.670;2023-01-29T01:58:09;-1.90;99.90
15481;DHT22;7842;50.904;6.670;2023-01-29T02:00:37;-2.10;99.90
15481;DHT22;7842;50.904;6.670;2023-01-29T02:03:04;-2.10;99.90
15481;DHT22;7842;50.904;6.670;2023-01-29T02:05:49;-2.10;99.90
15481;DHT22;7842;50.904;6.670;2023-01-29T02:09:01;-2.20;99.90
15481;DHT22;7842;50.904;6.670;2023-01-29T02:11:46;-2.00;99.90
15481;DHT22;7842;50.904;6.670;2023-01-29T02:14:11;-2.20;99.90
15481;DHT22;7842;50.904;6.670;2023-01-29T02:16:37;-2.20;99.90
15481;DHT22;7842;50.904;6.670;2023-01-29T02:19:15;-2.20;99.90
15481;DHT22;7842;50.904;6.670;2023-01-29T02:24:31;-2.10;99.90
15481;DHT22;7842;50.904;6.670;2023-01-29T02:27:13;-2.20;99.90
15481;DHT22;7842;50.904;6.670;2023-01-29T02:32:40;-2.30;99.90
15481;DHT22;7842;50.904;6.670;2023-01-29T02:35:31;-2.30;99.90
15481;DHT22;7842;50.904;6.670;2023-01-29T02:38:35;-2.40;99.90
15481;DHT22;7842;50.904;6.670;2023-01-29T02:41:26;-2.40;99.90
15481;DHT22;7842;50.904;6.670;2023-01-29T02:49:16;-2.50;99.90
15481;DHT22;7842;50.904;6.670;2023-01-29T02:52:01;-2.40;99.90
15481;DHT22;7842;50.904;6.670;2023-01-29T02:54:39;-2.40;99.90
15481;DHT22;7842;50.904;6.670;2023-01-29T02:57:16;-2.30;99.90
15481;DHT22;7842;50.904;6.670;2023-01-29T02:59:55;-2.20;99.90
15481;DHT22;7842;50.904;6.670;2023-01-29T03:02:31;-2.10;99.90
15481;DHT22;7842;50.904;6.670;2023-01-29T03:05:02;-2.00;99.90
15481;DHT22;7842;50.904;6.670;2023-01-29T03:07:39;-2.00;99.90
15481;DHT22;7842;50.904;6.670;2023-01-29T03:10:19;-2.00;99.90
15481;DHT22;7842;50.904;6.670;2023-01-29T03:12:51;-2.00;99.90
15481;DHT22;7842;50.904;6.670;2023-01-29T03:15:23;-2.00;99.90
15481;DHT22;7842;50.904;6.670;2023-01-29T03:18:03;-2.00;99.90
15481;DHT22;7842;50.904;6.670;2023-01-29T03:20:34;-2.10;99.90
15481;DHT22;7842;50.904;6.670;2023-01-29T03:23:10;-2.20;99.90
15481;DHT22;7842;50.904;6.670;2023-01-29T03:25:39;-2.30;99.90
15481;DHT22;7842;50.904;6.670;2023-01-29T03:28:26;-2.30;99.90
15481;DHT22;7842;50.904;6.670;2023-01-29T03:31:12;-2.60;99.90
15481;DHT22;7842;50.904;6.670;2023-01-29T03:34:00;-2.40;99.90
15481;DHT22;7842;50.904;6.670;2023-01-29T03:36:33;-2.50;99.90
15481;DHT22;7842;50.904;6.670;2023-01-29T03:39:07;-2.50;99.90
15481;DHT22;7842;50.904;6.670;2023-01-29T03:41:44;-2.40;99.90
15481;DHT22;7842;50.904;6.670;2023-01-29T03:44:19;-2.40;99.90
15481;DHT22;7842;50.904;6.670;2023-01-29T03:47:04;-2.40;99.90
15481;DHT22;7842;50.904;6.670;2023-01-29T03:49:56;-2.30;99.90
15481;DHT22;7842;50.904;6.670;2023-01-29T03:52:32;-2.20;99.90
15481;DHT22;7842;50.904;6.670;2023-01-29T03:55:16;-2.20;99.90
15481;DHT22;7842;50.904;6.670;2023-01-29T03:57:59;-2.30;99.90
15481;DHT22;7842;50.904;6.670;2023-01-29T04:00:37;-2.20;99.90
15481;DHT22;7842;50.904;6.670;2023-01-29T04:03:05;-2.30;99.90
15481;DHT22;7842;50.904;6.670;2023-01-29T04:05:49;-2.20;99.90
15481;DHT22;7842;50.904;6.670;2023-01-29T04:08:22;-2.10;99.90
15481;DHT22;7842;50.904;6.670;2023-01-29T04:10:52;-2.00;99.90
15481;DHT22;7842;50.904;6.670;2023-01-29T04:13:19;-2.00;99.90
15481;DHT22;7842;50.904;6.670;2023-01-29T04:15:55;-2.00;99.90
15481;DHT22;7842;50.904;6.670;2023-01-29T04:18:23;-2.10;99.90
15481;DHT22;7842;50.904;6.670;2023-01-29T04:20:49;-2.30;99.90
15481;DHT22;7842;50.904;6.670;2023-01-29T04:23:24;-2.40;99.90
15481;DHT22;7842;50.904;6.670;2023-01-29T04:26:30;-2.50;99.90
15481;DHT22;7842;50.904;6.670;2023-01-29T04:29:39;-2.50;99.90
15481;DHT22;7842;50.904;6.670;2023-01-29T04:35:38;-2.60;99.90
15481;DHT22;7842;50.904;6.670;2023-01-29T04:38:10;-2.50;99.90
15481;DHT22;7842;50.904;6.670;2023-01-29T04:44:30;-2.50;99.90
15481;DHT22;7842;50.904;6.670;2023-01-29T04:49:22;-2.40;99.90
15481;DHT22;7842;50.904;6.670;2023-01-29T04:52:03;-2.60;99.90
15481;DHT22;7842;50.904;6.670;2023-01-29T04:54:41;-2.60;99.90
15481;DHT22;7842;50.904;6.670;2023-01-29T04:57:23;-2.60;99.90
15481;DHT22;7842;50.904;6.670;2023-01-29T05:00:04;-2.50;99.90
15481;DHT22;7842;50.904;6.670;2023-01-29T05:02:35;-2.50;99.90
15481;DHT22;7842;50.904;6.670;2023-01-29T05:05:02;-2.50;99.90
15481;DHT22;7842;50.904;6.670;2023-01-29T05:07:30;-2.50;99.90
15481;DHT22;7842;50.904;6.670;2023-01-29T05:09:57;-2.60;99.90
15481;DHT22;7842;50.904;6.670;2023-01-29T05:12:25;-2.60;99.90
15481;DHT22;7842;50.904;6.670;2023-01-29T05:14:55;-2.80;99.90
15481;DHT22;7842;50.904;6.670;2023-01-29T05:17:24;-2.90;99.90
15481;DHT22;7842;50.904;6.670;2023-01-29T05:19:50;-2.80;99.90
15481;DHT22;7842;50.904;6.670;2023-01-29T05:22:17;-2.90;99.90
15481;DHT22;7842;50.904;6.670;2023-01-29T05:24:47;-2.80;99.90
15481;DHT22;7842;50.904;6.670;2023-01-29T05:27:27;-3.00;99.90
15481;DHT22;7842;50.904;6.670;2023-01-29T05:30:12;-2.80;99.90
15481;DHT22;7842;50.904;6.670;2023-01-29T05:32:38;-2.60;99.90
15481;DHT22;7842;50.904;6.670;2023-01-29T05:35:05;-2.70;99.90
15481;DHT22;7842;50.904;6.670;2023-01-29T05:37:30;-2.70;99.90
15481;DHT22;7842;50.904;6.670;2023-01-29T05:39:56;-2.80;99.90
15481;DHT22;7842;50.904;6.670;2023-01-29T05:42:22;-2.90;99.90
15481;DHT22;7842;50.904;6.670;2023-01-29T05:44:48;-3.00;99.90
15481;DHT22;7842;50.904;6.670;2023-01-29T05:47:18;-3.00;99.90
15481;DHT22;7842;50.904;6.670;2023-01-29T05:49:43;-3.00;99.90
15481;DHT22;7842;50.904;6.670;2023-01-29T05:52:09;-3.00;99.90
15481;DHT22;7842;50.904;6.670;2023-01-29T05:54:34;-3.00;99.90
15481;DHT22;7842;50.904;6.670;2023-01-29T05:57:00;-2.80;99.90
15481;DHT22;7842;50.904;6.670;2023-01-29T05:59:25;-2.80;99.90
15481;DHT22;7842;50.904;6.670;2023-01-29T06:01:51;-2.70;99.90
15481;DHT22;7842;50.904;6.670;2023-01-29T06:04:16;-2.60;99.90
15481;DHT22;7842;50.904;6.670;2023-01-29T06:06:42;-2.90;99.90
15481;DHT22;7842;50.904;6.670;2023-01-29T06:09:09;-2.70;99.90
15481;DHT22;7842;50.904;6.670;2023-01-29T06:11:35;-2.70;99.90
15481;DHT22;7842;50.904;6.670;2023-01-29T06:14:01;-3.00;99.90
15481;DHT22;7842;50.904;6.670;2023-01-29T06:16:26;-2.80;99.90
15481;DHT22;7842;50.904;6.670;2023-01-29T06:18:52;-2.30;99.90
15481;DHT22;7842;50.904;6.670;2023-01-29T06:21:17;-2.90;99.90
15481;DHT22;7842;50.904;6.670;2023-01-29T06:23:43;-2.90;99.90
15481;DHT22;7842;50.904;6.670;2023-01-29T06:26:14;-2.70;99.90
15481;DHT22;7842;50.904;6.670;2023-01-29T06:28:40;-2.80;99.90
15481;DHT22;7842;50.904;6.670;2023-01-29T06:31:06;-2.70;99.90
15481;DHT22;7842;50.904;6.670;2023-01-29T06:33:33;-2.80;99.90
15481;DHT22;7842;50.904;6.670;2023-01-29T06:36:02;-2.90;99.90
15481;DHT22;7842;50.904;6.670;2023-01-29T06:38:29;-2.70;99.90
15481;DHT22;7842;50.904;6.670;2023-01-29T06:40:55;-2.70;99.90
15481;DHT22;7842;50.904;6.670;2023-01-29T06:43:21;-2.80;99.90
15481;DHT22;7842;50.904;6.670;2023-01-29T06:45:54;-2.80;99.90
15481;DHT22;7842;50.904;6.670;2023-01-29T06:48:20;-2.80;99.90
15481;DHT22;7842;50.904;6.670;2023-01-29T06:50:46;-2.60;99.90
15481;DHT22;7842;50.904;6.670;2023-01-29T06:53:14;-2.90;99.90
15481;DHT22;7842;50.904;6.670;2023-01-29T06:55:39;-2.50;99.90
15481;DHT22;7842;50.904;6.670;2023-01-29T06:58:06;-2.60;99.90
15481;DHT22;7842;50.904;6.670;2023-01-29T07:00:32;-2.50;99.90
15481;DHT22;7842;50.904;6.670;2023-01-29T07:02:58;-2.60;99.90
15481;DHT22;7842;50.904;6.670;2023-01-29T07:05:23;-2.60;99.90
15481;DHT22;7842;50.904;6.670;2023-01-29T07:07:49;-2.70;99.90
15481;DHT22;7842;50.904;6.670;2023-01-29T07:10:14;-2.80;99.90
15481;DHT22;7842;50.904;6.670;2023-01-29T07:12:40;-2.70;99.90
15481;DHT22;7842;50.904;6.670;2023-01-29T07:15:06;-2.70;99.90
15481;DHT22;7842;50.904;6.670;2023-01-29T07:17:32;-2.60;99.90
15481;DHT22;7842;50.904;6.670;2023-01-29T07:19:57;-2.70;99.90
15481;DHT22;7842;50.904;6.670;2023-01-29T07:22:23;-2.50;99.90
15481;DHT22;7842;50.904;6.670;2023-01-29T07:24:48;-2.60;99.90
15481;DHT22;7842;50.904;6.670;2023-01-29T07:27:14;-2.60;99.90
15481;DHT22;7842;50.904;6.670;2023-01-29T07:29:40;-2.70;99.90
15481;DHT22;7842;50.904;6.670;2023-01-29T07:32:05;-2.40;99.90
15481;DHT22;7842;50.904;6.670;2023-01-29T07:34:32;-2.50;99.90
15481;DHT22;7842;50.904;6.670;2023-01-29T07:36:58;-2.50;99.90
15481;DHT22;7842;50.904;6.670;2023-01-29T07:39:23;-2.70;99.90
15481;DHT22;7842;50.904;6.670;2023-01-29T07:41:49;-2.40;99.90
15481;DHT22;7842;50.904;6.670;2023-01-29T07:44:15;-2.50;99.90
15481;DHT22;7842;50.904;6.670;2023-01-29T07:46:40;-2.70;99.90
15481;DHT22;7842;50.904;6.670;2023-01-29T07:49:06;-2.50;99.90
15481;DHT22;7842;50.904;6.670;2023-01-29T07:51:31;-2.40;99.90
15481;DHT22;7842;50.904;6.670;2023-01-29T07:53:57;-2.20;99.90
15481;DHT22;7842;50.904;6.670;2023-01-29T07:56:22;-2.30;99.90
15481;DHT22;7842;50.904;6.670;2023-01-29T07:58:48;-2.50;99.90
15481;DHT22;7842;50.904;6.670;2023-01-29T08:01:14;-2.30;99.90
15481;DHT22;7842;50.904;6.670;2023-01-29T08:03:39;-2.20;99.90
15481;DHT22;7842;50.904;6.670;2023-01-29T08:06:05;-2.40;99.90
15481;DHT22;7842;50.904;6.670;2023-01-29T08:08:30;-2.20;99.90
15481;DHT22;7842;50.904;6.670;2023-01-29T08:10:59;-2.20;99.90
15481;DHT22;7842;50.904;6.670;2023-01-29T08:13:24;-2.30;99.90
15481;DHT22;7842;50.904;6.670;2023-01-29T08:15:50;-1.60;99.90
15481;DHT22;7842;50.904;6.670;2023-01-29T08:18:15;-2.30;99.90
15481;DHT22;7842;50.904;6.670;2023-01-29T08:20:41;-2.30;99.90
15481;DHT22;7842;50.904;6.670;2023-01-29T08:23:11;-1.80;99.90
15481;DHT22;7842;50.904;6.670;2023-01-29T08:25:37;-2.00;99.90
15481;DHT22;7842;50.904;6.670;2023-01-29T08:28:03;-1.90;99.90
15481;DHT22;7842;50.904;6.670;2023-01-29T08:30:31;-1.80;99.90
15481;DHT22;7842;50.904;6.670;2023-01-29T08:32:57;-1.70;99.90
15481;DHT22;7842;50.904;6.670;2023-01-29T08:35:23;-1.90;99.90
15481;DHT22;7842;50.904;6.670;2023-01-29T08:37:56;-1.70;99.90
15481;DHT22;7842;50.904;6.670;2023-01-29T08:40:24;-1.60;99.90
15481;DHT22;7842;50.904;6.670;2023-01-29T08:42:50;-1.70;99.90
15481;DHT22;7842;50.904;6.670;2023-01-29T08:45:16;-1.40;99.90
15481;DHT22;7842;50.904;6.670;2023-01-29T08:47:48;-1.40;99.90
15481;DHT22;7842;50.904;6.670;2023-01-29T08:50:15;-1.70;99.90
15481;DHT22;7842;50.904;6.670;2023-01-29T08:52:42;-1.50;99.90
15481;DHT22;7842;50.904;6.670;2023-01-29T08:55:08;-1.40;99.90
15481;DHT22;7842;50.904;6.670;2023-01-29T09:51:33;0.10;99.90
15481;DHT22;7842;50.904;6.670;2023-01-29T09:54:23;-0.10;99.90
15481;DHT22;7842;50.904;6.670;2023-01-29T09:56:52;-0.30;99.90
15481;DHT22;7842;50.904;6.670;2023-01-29T09:59:19;0.00;99.90
15481;DHT22;7842;50.904;6.670;2023-01-29T10:01:52;0.10;99.90
15481;DHT22;7842;50.904;6.670;2023-01-29T11:47:20;2.60;99.90
15481;DHT22;7842;50.904;6.670;2023-01-29T12:07:13;2.90;99.90
15481;DHT22;7842;50.904;6.670;2023-01-29T12:19:46;3.30;99.90
15481;DHT22;7842;50.904;6.670;2023-01-29T12:42:40;3.60;99.90
15481;DHT22;7842;50.904;6.670;2023-01-29T12:45:08;3.60;99.90
15481;DHT22;7842;50.904;6.670;2023-01-29T12:50:13;3.60;99.90
15481;DHT22;7842;50.904;6.670;2023-01-29T12:52:50;3.50;99.90
15481;DHT22;7842;50.904;6.670;2023-01-29T12:57:56;3.60;99.90
15481;DHT22;7842;50.904;6.670;2023-01-29T13:00:33;3.60;99.90
15481;DHT22;7842;50.904;6.670;2023-01-29T13:31:28;3.80;99.90
15481;DHT22;7842;50.904;6.670;2023-01-29T13:36:29;3.90;99.90
15481;DHT22;7842;50.904;6.670;2023-01-29T13:39:03;3.90;99.90
15481;DHT22;7842;50.904;6.670;2023-01-29T13:41:37;4.00;99.90
15481;DHT22;7842;50.904;6.670;2023-01-29T15:20:35;3.80;99.90
15481;DHT22;7842;50.904;6.670;2023-01-29T16:15:09;3.40;99.90
15481;DHT22;7842;50.904;6.670;2023-01-29T16:17:39;3.50;99.90
15481;DHT22;7842;50.904;6.670;2023-01-29T16:20:18;3.50;99.90
15481;DHT22;7842;50.904;6.670;2023-01-29T16:32:39;3.40;99.90
15481;DHT22;7842;50.904;6.670;2023-01-29T16:35:05;3.40;99.90
15481;DHT22;7842;50.904;6.670;2023-01-29T16:40:13;3.40;99.90
15481;DHT22;7842;50.904;6.670;2023-01-29T16:45:25;3.40;99.90
15481;DHT22;7842;50.904;6.670;2023-01-29T16:50:34;3.40;99.90
15481;DHT22;7842;50.904;6.670;2023-01-29T16:53:12;3.30;99.90
15481;DHT22;7842;50.904;6.670;2023-01-29T16:58:18;3.30;99.90
15481;DHT22;7842;50.904;6.670;2023-01-29T17:00:46;3.20;99.90
15481;DHT22;7842;50.904;6.670;2023-01-29T17:03:14;3.20;99.90
15481;DHT22;7842;50.904;6.670;2023-01-29T17:05:41;3.20;99.90
15481;DHT22;7842;50.904;6.670;2023-01-29T17:08:07;3.20;99.90
15481;DHT22;7842;50.904;6.670;2023-01-29T17:10:46;3.20;99.90
15481;DHT22;7842;50.904;6.670;2023-01-29T17:15:45;3.20;99.90
15481;DHT22;7842;50.904;6.670;2023-01-29T17:20:43;3.10;99.90
15481;DHT22;7842;50.904;6.670;2023-01-29T17:23:09;3.10;99.90
15481;DHT22;7842;50.904;6.670;2023-01-29T17:25:34;3.20;99.90
15481;DHT22;7842;50.904;6.670;2023-01-29T17:28:01;3.20;99.90
15481;DHT22;7842;50.904;6.670;2023-01-29T17:30:30;3.10;99.90
15481;DHT22;7842;50.904;6.670;2023-01-29T17:32:58;3.10;99.90
15481;DHT22;7842;50.904;6.670;2023-01-29T17:35:23;3.10;99.90
15481;DHT22;7842;50.904;6.670;2023-01-29T17:37:49;3.00;99.90
15481;DHT22;7842;50.904;6.670;2023-01-29T17:43:20;3.10;99.90
15481;DHT22;7842;50.904;6.670;2023-01-29T17:45:46;3.10;99.90
15481;DHT22;7842;50.904;6.670;2023-01-29T17:48:25;3.10;99.90
15481;DHT22;7842;50.904;6.670;2023-01-29T17:53:20;3.20;99.90
15481;DHT22;7842;50.904;6.670;2023-01-29T17:55:46;3.40;99.90
15481;DHT22;7842;50.904;6.670;2023-01-29T18:00:46;3.20;99.90
15481;DHT22;7842;50.904;6.670;2023-01-29T18:15:34;3.20;99.90
15481;DHT22;7842;50.904;6.670;2023-01-29T18:20:25;3.20;99.90
15481;DHT22;7842;50.904;6.670;2023-01-29T18:22:51;3.20;99.90
15481;DHT22;7842;50.904;6.670;2023-01-29T18:25:17;3.20;99.90
15481;DHT22;7842;50.904;6.670;2023-01-29T18:30:10;3.10;99.90
15481;DHT22;7842;50.904;6.670;2023-01-29T18:32:36;3.10;99.90
15481;DHT22;7842;50.904;6.670;2023-01-29T18:35:02;3.10;99.90
15481;DHT22;7842;50.904;6.670;2023-01-29T18:37:27;3.10;99.90
15481;DHT22;7842;50.904;6.670;2023-01-29T18:42:22;3.00;99.90
15481;DHT22;7842;50.904;6.670;2023-01-29T18:49:39;3.00;99.90
15481;DHT22;7842;50.904;6.670;2023-01-29T19:01:50;3.10;99.90
15481;DHT22;7842;50.904;6.670;2023-01-29T19:09:07;3.10;99.90
15481;DHT22;7842;50.904;6.670;2023-01-29T19:11:33;3.10;99.90
15481;DHT22;7842;50.904;6.670;2023-01-29T19:18:52;3.10;99.90
15481;DHT22;7842;50.904;6.670;2023-01-29T19:21:20;3.20;99.90
15481;DHT22;7842;50.904;6.670;2023-01-29T19:23:46;3.20;99.90
15481;DHT22;7842;50.904;6.670;2023-01-29T19:28:38;3.20;99.90
15481;DHT22;7842;50.904;6.670;2023-01-29T19:40:49;3.30;99.90
15481;DHT22;7842;50.904;6.670;2023-01-29T19:43:15;3.40;99.90
15481;DHT22;7842;50.904;6.670;2023-01-29T19:50:53;3.40;99.90
15481;DHT22;7842;50.904;6.670;2023-01-29T22:29:35;4.50;99.90
15481;DHT22;7842;50.904;6.670;2023-01-29T22:32:00;4.50;99.90
15481;DHT22;7842;50.904;6.670;2023-01-29T22:34:26;4.50;99.90
15481;DHT22;7842;50.904;6.670;2023-01-29T22:36:52;7.80;99.90
15481;DHT22;7842;50.904;6.670;2023-01-29T22:39:18;4.50;99.90
15481;DHT22;7842;50.904;6.670;2023-01-29T22:41:43;4.60;99.90
15481;DHT22;7842;50.904;6.670;2023-01-29T22:44:09;4.60;99.90
15481;DHT22;7842;50.904;6.670;2023-01-29T22:46:34;4.60;99.90
15481;DHT22;7842;50.904;6.670;2023-01-29T22:49:00;5.10;99.90
15481;DHT22;7842;50.904;6.670;2023-01-29T22:51:26;8.00;99.90
15481;DHT22;7842;50.904;6.670;2023-01-29T22:56:20;4.70;99.90
15481;DHT22;7842;50.904;6.670;2023-01-29T22:58:50;4.60;99.90
15481;DHT22;7842;50.904;6.670;2023-01-29T23:01:21;4.60;99.90
15481;DHT22;7842;50.904;6.670;2023-01-29T23:03:47;4.60;99.90
15481;DHT22;7842;50.904;6.670;2023-01-29T23:06:14;4.60;99.90
15481;DHT22;7842;50.904;6.670;2023-01-29T23:08:39;4.60;99.90
15481;DHT22;7842;50.904;6.670;2023-01-29T23:13:47;4.60;99.90
15481;DHT22;7842;50.904;6.670;2023-01-29T23:16:14;4.60;99.90
15481;DHT22;7842;50.904;6.670;2023-01-29T23:26:01;4.80;99.90
15481;DHT22;7842;50.904;6.670;2023-01-29T23:33:38;4.80;99.90
15481;DHT22;7842;50.904;6.670;2023-01-29T23:36:05;4.80;99.90
15481;DHT22;7842;50.904;6.670;2023-01-29T23:38:31;4.80;99.90
15481;DHT22;7842;50.904;6.670;2023-01-29T23:40:57;4.80;99.90
15481;DHT22;7842;50.904;6.670;2023-01-29T23:45:49;4.80;99.90
15481;DHT22;7842;50.904;6.670;2023-01-29T23:48:15;4.80;99.90
